<?xml version="1.0" encoding="UTF-8" standalone="no" ?>
<gpx xmlns="http://www.topografix.com/GPX/1/1" xmlns:xsi="http://www.w3.org/2001/XMLSchema-instance" xsi:schemaLocation="http://www.topografix.com/GPX/1/1 http://www.topografix.com/GPX/1/1/gpx.xsd" version="1.1" creator="VisuGPX - https://www.visugpx.com">
  <metadata>
    <name>Nordend</name>
    <desc><![CDATA[Nordend 2014                                           ]]></desc>
  </metadata>
  <trk>
    <name><![CDATA[Move]]></name>
    <trkseg>
      <trkpt lat="45.95675" lon="7.81469">
        <ele>2898</ele>
        <time>2014-04-07T02:51:52.310Z</time>
      </trkpt>
      <trkpt lat="45.95669" lon="7.81473">
        <ele>2898.96300032</ele>
        <time>2014-04-07T02:52:21.000Z</time>
      </trkpt>
      <trkpt lat="45.95661" lon="7.81485">
        <ele>2901.89000064</ele>
        <time>2014-04-07T02:54:30.270Z</time>
      </trkpt>
      <trkpt lat="45.95656" lon="7.81507">
        <ele>2907</ele>
        <time>2014-04-07T02:54:53.580Z</time>
      </trkpt>
      <trkpt lat="45.95651" lon="7.81509">
        <ele>2907</ele>
        <time>2014-04-07T02:55:01.250Z</time>
      </trkpt>
      <trkpt lat="45.95638" lon="7.81537">
        <ele>2911.956523004</ele>
        <time>2014-04-07T02:55:40.270Z</time>
      </trkpt>
      <trkpt lat="45.9561" lon="7.81563">
        <ele>2921.38</ele>
        <time>2014-04-07T02:56:44.170Z</time>
      </trkpt>
      <trkpt lat="45.95599" lon="7.81611">
        <ele>2930.94000128</ele>
        <time>2014-04-07T02:57:55.070Z</time>
      </trkpt>
      <trkpt lat="45.95573" lon="7.81639">
        <ele>2939.12999936</ele>
        <time>2014-04-07T02:59:06.020Z</time>
      </trkpt>
      <trkpt lat="45.95554" lon="7.81671">
        <ele>2948.05299968</ele>
        <time>2014-04-07T03:00:10.900Z</time>
      </trkpt>
      <trkpt lat="45.95544" lon="7.81693">
        <ele>2956</ele>
        <time>2014-04-07T03:01:29.900Z</time>
      </trkpt>
      <trkpt lat="45.95512" lon="7.81729">
        <ele>2965.28900096</ele>
        <time>2014-04-07T03:04:48.000Z</time>
      </trkpt>
      <trkpt lat="45.9549" lon="7.81764">
        <ele>2973.56</ele>
        <time>2014-04-07T03:05:48.170Z</time>
      </trkpt>
      <trkpt lat="45.95487" lon="7.81805">
        <ele>2983.52600064</ele>
        <time>2014-04-07T03:06:48.000Z</time>
      </trkpt>
      <trkpt lat="45.95477" lon="7.81863">
        <ele>2992</ele>
        <time>2014-04-07T03:07:48.170Z</time>
      </trkpt>
      <trkpt lat="45.95455" lon="7.81916">
        <ele>2997</ele>
        <time>2014-04-07T03:08:48.000Z</time>
      </trkpt>
      <trkpt lat="45.95432" lon="7.81963">
        <ele>3002.56</ele>
        <time>2014-04-07T03:09:48.170Z</time>
      </trkpt>
      <trkpt lat="45.95404" lon="7.82">
        <ele>3007.77000064</ele>
        <time>2014-04-07T03:10:48.070Z</time>
      </trkpt>
      <trkpt lat="45.95389" lon="7.8204">
        <ele>3015.56</ele>
        <time>2014-04-07T03:11:48.170Z</time>
      </trkpt>
      <trkpt lat="45.95383" lon="7.82075">
        <ele>3021.76300032</ele>
        <time>2014-04-07T03:12:48.000Z</time>
      </trkpt>
      <trkpt lat="45.95392" lon="7.82114">
        <ele>3030</ele>
        <time>2014-04-07T03:13:48.170Z</time>
      </trkpt>
      <trkpt lat="45.95386" lon="7.82148">
        <ele>3037.76300032</ele>
        <time>2014-04-07T03:14:48.000Z</time>
      </trkpt>
      <trkpt lat="45.95369" lon="7.82171">
        <ele>3045.07500032</ele>
        <time>2014-04-07T03:15:51.120Z</time>
      </trkpt>
      <trkpt lat="45.9535" lon="7.82182">
        <ele>3053.7614768789</ele>
        <time>2014-04-07T03:16:48.000Z</time>
      </trkpt>
      <trkpt lat="45.9534" lon="7.8222">
        <ele>3059.78</ele>
        <time>2014-04-07T03:17:48.170Z</time>
      </trkpt>
      <trkpt lat="45.95323" lon="7.82265">
        <ele>3067</ele>
        <time>2014-04-07T03:18:48.000Z</time>
      </trkpt>
      <trkpt lat="45.95307" lon="7.82292">
        <ele>3071.5240970281</ele>
        <time>2014-04-07T03:19:48.000Z</time>
      </trkpt>
      <trkpt lat="45.95285" lon="7.82312">
        <ele>3079.77299968</ele>
        <time>2014-04-07T03:20:48.100Z</time>
      </trkpt>
      <trkpt lat="45.9526" lon="7.82326">
        <ele>3088.54599936</ele>
        <time>2014-04-07T03:21:48.100Z</time>
      </trkpt>
      <trkpt lat="45.95269" lon="7.82347">
        <ele>3097.34</ele>
        <time>2014-04-07T03:22:48.170Z</time>
      </trkpt>
      <trkpt lat="45.95273" lon="7.82367">
        <ele>3102.76300032</ele>
        <time>2014-04-07T03:23:48.000Z</time>
      </trkpt>
      <trkpt lat="45.95254" lon="7.82373">
        <ele>3107</ele>
        <time>2014-04-07T03:24:52.120Z</time>
      </trkpt>
      <trkpt lat="45.95217" lon="7.82373">
        <ele>3112.78</ele>
        <time>2014-04-07T03:26:48.170Z</time>
      </trkpt>
      <trkpt lat="45.95236" lon="7.8238">
        <ele>3114.76300032</ele>
        <time>2014-04-07T03:27:48.000Z</time>
      </trkpt>
      <trkpt lat="45.95261" lon="7.82383">
        <ele>3115.22</ele>
        <time>2014-04-07T03:28:48.170Z</time>
      </trkpt>
      <trkpt lat="45.9528" lon="7.82395">
        <ele>3113.76300032</ele>
        <time>2014-04-07T03:29:48.000Z</time>
      </trkpt>
      <trkpt lat="45.9529" lon="7.82407">
        <ele>3120.12</ele>
        <time>2014-04-07T03:30:48.170Z</time>
      </trkpt>
      <trkpt lat="45.95304" lon="7.82421">
        <ele>3124.76300032</ele>
        <time>2014-04-07T03:31:48.000Z</time>
      </trkpt>
      <trkpt lat="45.95278" lon="7.8243">
        <ele>3134.34</ele>
        <time>2014-04-07T03:32:48.170Z</time>
      </trkpt>
      <trkpt lat="45.95299" lon="7.82472">
        <ele>3151</ele>
        <time>2014-04-07T03:34:48.170Z</time>
      </trkpt>
      <trkpt lat="45.95306" lon="7.82499">
        <ele>3162.5240970281</ele>
        <time>2014-04-07T03:36:48.000Z</time>
      </trkpt>
      <trkpt lat="45.95281" lon="7.82509">
        <ele>3171.54599936</ele>
        <time>2014-04-07T03:37:48.100Z</time>
      </trkpt>
      <trkpt lat="45.95258" lon="7.82517">
        <ele>3180.76300032</ele>
        <time>2014-04-07T03:38:48.000Z</time>
      </trkpt>
      <trkpt lat="45.95281" lon="7.82551">
        <ele>3190</ele>
        <time>2014-04-07T03:39:48.170Z</time>
      </trkpt>
      <trkpt lat="45.95267" lon="7.82573">
        <ele>3200.05200128</ele>
        <time>2014-04-07T03:40:48.000Z</time>
      </trkpt>
      <trkpt lat="45.9525" lon="7.82577">
        <ele>3207.77000064</ele>
        <time>2014-04-07T03:41:48.070Z</time>
      </trkpt>
      <trkpt lat="45.95259" lon="7.82603">
        <ele>3215.12</ele>
        <time>2014-04-07T03:43:48.170Z</time>
      </trkpt>
      <trkpt lat="45.95262" lon="7.82623">
        <ele>3223.76300032</ele>
        <time>2014-04-07T03:44:48.000Z</time>
      </trkpt>
      <trkpt lat="45.95237" lon="7.82641">
        <ele>3232.78</ele>
        <time>2014-04-07T03:45:48.170Z</time>
      </trkpt>
      <trkpt lat="45.95247" lon="7.82656">
        <ele>3240.76300032</ele>
        <time>2014-04-07T03:46:48.000Z</time>
      </trkpt>
      <trkpt lat="45.95251" lon="7.82682">
        <ele>3244</ele>
        <time>2014-04-07T03:47:48.170Z</time>
      </trkpt>
      <trkpt lat="45.95252" lon="7.82727">
        <ele>3251.76300032</ele>
        <time>2014-04-07T03:54:48.000Z</time>
      </trkpt>
      <trkpt lat="45.95221" lon="7.82755">
        <ele>3258.66300032</ele>
        <time>2014-04-07T03:55:47.000Z</time>
      </trkpt>
      <trkpt lat="45.95196" lon="7.82758">
        <ele>3267.79000064</ele>
        <time>2014-04-07T03:56:48.270Z</time>
      </trkpt>
      <trkpt lat="45.95182" lon="7.82784">
        <ele>3276.54599936</ele>
        <time>2014-04-07T03:57:48.100Z</time>
      </trkpt>
      <trkpt lat="45.95176" lon="7.82817">
        <ele>3285.34</ele>
        <time>2014-04-07T03:58:48.170Z</time>
      </trkpt>
      <trkpt lat="45.95155" lon="7.82841">
        <ele>3291.76300032</ele>
        <time>2014-04-07T03:59:48.000Z</time>
      </trkpt>
      <trkpt lat="45.95144" lon="7.82872">
        <ele>3302.78</ele>
        <time>2014-04-07T04:00:48.170Z</time>
      </trkpt>
      <trkpt lat="45.95136" lon="7.82911">
        <ele>3311.52600064</ele>
        <time>2014-04-07T04:01:48.000Z</time>
      </trkpt>
      <trkpt lat="45.95125" lon="7.82952">
        <ele>3319.54000128</ele>
        <time>2014-04-07T04:02:48.070Z</time>
      </trkpt>
      <trkpt lat="45.95104" lon="7.82991">
        <ele>3327.52600064</ele>
        <time>2014-04-07T04:03:48.000Z</time>
      </trkpt>
      <trkpt lat="45.95077" lon="7.83018">
        <ele>3335</ele>
        <time>2014-04-07T04:04:48.070Z</time>
      </trkpt>
      <trkpt lat="45.9505" lon="7.83041">
        <ele>3345.05200128</ele>
        <time>2014-04-07T04:05:48.000Z</time>
      </trkpt>
      <trkpt lat="45.95025" lon="7.83067">
        <ele>3353</ele>
        <time>2014-04-07T04:06:48.070Z</time>
      </trkpt>
      <trkpt lat="45.95015" lon="7.83093">
        <ele>3361.7599604781</ele>
        <time>2014-04-07T04:07:48.000Z</time>
      </trkpt>
      <trkpt lat="45.95017" lon="7.83116">
        <ele>3369.58000128</ele>
        <time>2014-04-07T04:08:48.270Z</time>
      </trkpt>
      <trkpt lat="45.95036" lon="7.83142">
        <ele>3377.76300032</ele>
        <time>2014-04-07T04:09:48.000Z</time>
      </trkpt>
      <trkpt lat="45.95045" lon="7.83177">
        <ele>3385.757028755</ele>
        <time>2014-04-07T04:10:47.950Z</time>
      </trkpt>
      <trkpt lat="45.95023" lon="7.8319">
        <ele>3394.52600064</ele>
        <time>2014-04-07T04:11:48.000Z</time>
      </trkpt>
      <trkpt lat="45.94998" lon="7.83225">
        <ele>3401.50800128</ele>
        <time>2014-04-07T04:12:47.910Z</time>
      </trkpt>
      <trkpt lat="45.94972" lon="7.83259">
        <ele>3409.56</ele>
        <time>2014-04-07T04:13:48.170Z</time>
      </trkpt>
      <trkpt lat="45.94949" lon="7.83294">
        <ele>3416.496</ele>
        <time>2014-04-07T04:14:47.850Z</time>
      </trkpt>
      <trkpt lat="45.94948" lon="7.83318">
        <ele>3424.78</ele>
        <time>2014-04-07T04:15:48.170Z</time>
      </trkpt>
      <trkpt lat="45.94942" lon="7.83356">
        <ele>3432</ele>
        <time>2014-04-07T04:16:47.950Z</time>
      </trkpt>
      <trkpt lat="45.94936" lon="7.83398">
        <ele>3439.22</ele>
        <time>2014-04-07T04:17:48.170Z</time>
      </trkpt>
      <trkpt lat="45.94926" lon="7.83444">
        <ele>3446.28900096</ele>
        <time>2014-04-07T04:18:48.000Z</time>
      </trkpt>
      <trkpt lat="45.94923" lon="7.8349">
        <ele>3453.34</ele>
        <time>2014-04-07T04:19:48.170Z</time>
      </trkpt>
      <trkpt lat="45.94926" lon="7.83537">
        <ele>3460.25300096</ele>
        <time>2014-04-07T04:20:47.880Z</time>
      </trkpt>
      <trkpt lat="45.94932" lon="7.83584">
        <ele>3465.56</ele>
        <time>2014-04-07T04:21:48.170Z</time>
      </trkpt>
      <trkpt lat="45.94933" lon="7.83646">
        <ele>3470.07000064</ele>
        <time>2014-04-07T04:22:51.070Z</time>
      </trkpt>
      <trkpt lat="45.94959" lon="7.83687">
        <ele>3476</ele>
        <time>2014-04-07T04:23:48.130Z</time>
      </trkpt>
      <trkpt lat="45.94957" lon="7.83735">
        <ele>3483</ele>
        <time>2014-04-07T04:24:49.900Z</time>
      </trkpt>
      <trkpt lat="45.94967" lon="7.83768">
        <ele>3489.78</ele>
        <time>2014-04-07T04:25:48.170Z</time>
      </trkpt>
      <trkpt lat="45.94981" lon="7.83801">
        <ele>3497.27400192</ele>
        <time>2014-04-07T04:26:47.950Z</time>
      </trkpt>
      <trkpt lat="45.94989" lon="7.83833">
        <ele>3504.7620485141</ele>
        <time>2014-04-07T04:27:48.000Z</time>
      </trkpt>
      <trkpt lat="45.95001" lon="7.83858">
        <ele>3511</ele>
        <time>2014-04-07T04:28:47.950Z</time>
      </trkpt>
      <trkpt lat="45.95005" lon="7.83883">
        <ele>3514.95300096</ele>
        <time>2014-04-07T04:29:49.900Z</time>
      </trkpt>
      <trkpt lat="45.9501" lon="7.83927">
        <ele>3522.78</ele>
        <time>2014-04-07T04:30:48.170Z</time>
      </trkpt>
      <trkpt lat="45.95021" lon="7.83961">
        <ele>3529.76300032</ele>
        <time>2014-04-07T04:31:48.000Z</time>
      </trkpt>
      <trkpt lat="45.95023" lon="7.83996">
        <ele>3537.78</ele>
        <time>2014-04-07T04:32:48.170Z</time>
      </trkpt>
      <trkpt lat="45.95014" lon="7.84034">
        <ele>3544.76300032</ele>
        <time>2014-04-07T04:33:48.000Z</time>
      </trkpt>
      <trkpt lat="45.94994" lon="7.84042">
        <ele>3552.776</ele>
        <time>2014-04-07T04:34:48.130Z</time>
      </trkpt>
      <trkpt lat="45.94973" lon="7.84055">
        <ele>3562</ele>
        <time>2014-04-07T04:35:48.100Z</time>
      </trkpt>
      <trkpt lat="45.94952" lon="7.84061">
        <ele>3569</ele>
        <time>2014-04-07T04:36:48.170Z</time>
      </trkpt>
      <trkpt lat="45.94921" lon="7.84053">
        <ele>3576.76300032</ele>
        <time>2014-04-07T04:37:48.000Z</time>
      </trkpt>
      <trkpt lat="45.949" lon="7.84054">
        <ele>3584.78</ele>
        <time>2014-04-07T04:38:48.170Z</time>
      </trkpt>
      <trkpt lat="45.94878" lon="7.84057">
        <ele>3590.72600064</ele>
        <time>2014-04-07T04:39:49.000Z</time>
      </trkpt>
      <trkpt lat="45.94886" lon="7.84086">
        <ele>3597.34</ele>
        <time>2014-04-07T04:40:48.170Z</time>
      </trkpt>
      <trkpt lat="45.94883" lon="7.84112">
        <ele>3604.5229537578</ele>
        <time>2014-04-07T04:41:48.000Z</time>
      </trkpt>
      <trkpt lat="45.94897" lon="7.8414">
        <ele>3610</ele>
        <time>2014-04-07T04:42:48.170Z</time>
      </trkpt>
      <trkpt lat="45.94862" lon="7.84145">
        <ele>3617.86300032</ele>
        <time>2014-04-07T04:43:49.000Z</time>
      </trkpt>
      <trkpt lat="45.94835" lon="7.84123">
        <ele>3622.7618094434</ele>
        <time>2014-04-07T04:44:48.000Z</time>
      </trkpt>
      <trkpt lat="45.94802" lon="7.84128">
        <ele>3628.87300096</ele>
        <time>2014-04-07T04:45:49.100Z</time>
      </trkpt>
      <trkpt lat="45.94812" lon="7.84158">
        <ele>3636.76300032</ele>
        <time>2014-04-07T04:46:48.000Z</time>
      </trkpt>
      <trkpt lat="45.94819" lon="7.84203">
        <ele>3645.56</ele>
        <time>2014-04-07T04:47:48.170Z</time>
      </trkpt>
      <trkpt lat="45.94807" lon="7.84242">
        <ele>3653.76300032</ele>
        <time>2014-04-07T04:48:48.000Z</time>
      </trkpt>
      <trkpt lat="45.94795" lon="7.84281">
        <ele>3660.56</ele>
        <time>2014-04-07T04:49:48.170Z</time>
      </trkpt>
      <trkpt lat="45.94782" lon="7.84311">
        <ele>3668.52600064</ele>
        <time>2014-04-07T04:50:48.000Z</time>
      </trkpt>
      <trkpt lat="45.94767" lon="7.84339">
        <ele>3675</ele>
        <time>2014-04-07T04:51:48.170Z</time>
      </trkpt>
      <trkpt lat="45.94744" lon="7.8437">
        <ele>3682.9107149206</ele>
        <time>2014-04-07T04:52:50.000Z</time>
      </trkpt>
      <trkpt lat="45.94729" lon="7.84367">
        <ele>3689.56</ele>
        <time>2014-04-07T04:53:48.170Z</time>
      </trkpt>
      <trkpt lat="45.947" lon="7.84377">
        <ele>3697</ele>
        <time>2014-04-07T04:54:48.000Z</time>
      </trkpt>
      <trkpt lat="45.94694" lon="7.84407">
        <ele>3705.78</ele>
        <time>2014-04-07T04:55:48.170Z</time>
      </trkpt>
      <trkpt lat="45.94684" lon="7.84435">
        <ele>3711.95300096</ele>
        <time>2014-04-07T04:56:49.900Z</time>
      </trkpt>
      <trkpt lat="45.94671" lon="7.84427">
        <ele>3714.56</ele>
        <time>2014-04-07T04:57:48.170Z</time>
      </trkpt>
      <trkpt lat="45.9466" lon="7.84451">
        <ele>3722.7614768789</ele>
        <time>2014-04-07T04:58:48.000Z</time>
      </trkpt>
      <trkpt lat="45.94658" lon="7.84471">
        <ele>3731.05500032</ele>
        <time>2014-04-07T04:59:50.920Z</time>
      </trkpt>
      <trkpt lat="45.94652" lon="7.84483">
        <ele>3736.75300096</ele>
        <time>2014-04-07T05:00:47.900Z</time>
      </trkpt>
      <trkpt lat="45.94637" lon="7.84498">
        <ele>3744</ele>
        <time>2014-04-07T05:01:50.900Z</time>
      </trkpt>
      <trkpt lat="45.94624" lon="7.8451">
        <ele>3749.76300032</ele>
        <time>2014-04-07T05:02:48.000Z</time>
      </trkpt>
      <trkpt lat="45.9462" lon="7.84537">
        <ele>3755.52600064</ele>
        <time>2014-04-07T05:03:48.000Z</time>
      </trkpt>
      <trkpt lat="45.94617" lon="7.84563">
        <ele>3762.56</ele>
        <time>2014-04-07T05:04:48.170Z</time>
      </trkpt>
      <trkpt lat="45.94598" lon="7.84579">
        <ele>3773.54000128</ele>
        <time>2014-04-07T05:06:48.070Z</time>
      </trkpt>
      <trkpt lat="45.9458" lon="7.84596">
        <ele>3782</ele>
        <time>2014-04-07T05:07:47.950Z</time>
      </trkpt>
      <trkpt lat="45.94566" lon="7.84603">
        <ele>3787.56</ele>
        <time>2014-04-07T05:08:48.170Z</time>
      </trkpt>
      <trkpt lat="45.94556" lon="7.84627">
        <ele>3794.27400192</ele>
        <time>2014-04-07T05:09:47.950Z</time>
      </trkpt>
      <trkpt lat="45.94543" lon="7.84644">
        <ele>3799.56</ele>
        <time>2014-04-07T05:10:48.170Z</time>
      </trkpt>
      <trkpt lat="45.9453" lon="7.84662">
        <ele>3804</ele>
        <time>2014-04-07T05:11:47.850Z</time>
      </trkpt>
      <trkpt lat="45.94521" lon="7.8468">
        <ele>3811</ele>
        <time>2014-04-07T05:12:48.130Z</time>
      </trkpt>
      <trkpt lat="45.94507" lon="7.84694">
        <ele>3817</ele>
        <time>2014-04-07T05:13:47.950Z</time>
      </trkpt>
      <trkpt lat="45.94496" lon="7.84711">
        <ele>3822.34</ele>
        <time>2014-04-07T05:14:48.170Z</time>
      </trkpt>
      <trkpt lat="45.94479" lon="7.84732">
        <ele>3828.7549807171</ele>
        <time>2014-04-07T05:15:47.950Z</time>
      </trkpt>
      <trkpt lat="45.94464" lon="7.84746">
        <ele>3832</ele>
        <time>2014-04-07T05:16:48.170Z</time>
      </trkpt>
      <trkpt lat="45.94421" lon="7.84743">
        <ele>3833.75800064</ele>
        <time>2014-04-07T05:19:47.950Z</time>
      </trkpt>
      <trkpt lat="45.94476" lon="7.84739">
        <ele>3832</ele>
        <time>2014-04-07T05:20:50.920Z</time>
      </trkpt>
      <trkpt lat="45.9446" lon="7.84736">
        <ele>3832</ele>
        <time>2014-04-07T05:21:50.860Z</time>
      </trkpt>
      <trkpt lat="45.94462" lon="7.84751">
        <ele>3833.9525222702</ele>
        <time>2014-04-07T05:22:50.000Z</time>
      </trkpt>
      <trkpt lat="45.94461" lon="7.84775">
        <ele>3840.56</ele>
        <time>2014-04-07T05:23:48.170Z</time>
      </trkpt>
      <trkpt lat="45.94478" lon="7.84788">
        <ele>3846</ele>
        <time>2014-04-07T05:24:47.970Z</time>
      </trkpt>
      <trkpt lat="45.94471" lon="7.84835">
        <ele>3854.78</ele>
        <time>2014-04-07T05:25:48.170Z</time>
      </trkpt>
      <trkpt lat="45.94462" lon="7.84861">
        <ele>3861</ele>
        <time>2014-04-07T05:26:47.900Z</time>
      </trkpt>
      <trkpt lat="45.94451" lon="7.84858">
        <ele>3869.34</ele>
        <time>2014-04-07T05:27:48.170Z</time>
      </trkpt>
      <trkpt lat="45.94428" lon="7.8488">
        <ele>3876.52600064</ele>
        <time>2014-04-07T05:28:48.000Z</time>
      </trkpt>
      <trkpt lat="45.94437" lon="7.84927">
        <ele>3888.52600064</ele>
        <time>2014-04-07T05:30:48.000Z</time>
      </trkpt>
      <trkpt lat="45.94447" lon="7.84954">
        <ele>3894.776</ele>
        <time>2014-04-07T05:31:48.130Z</time>
      </trkpt>
      <trkpt lat="45.94458" lon="7.84967">
        <ele>3903.7584491398</ele>
        <time>2014-04-07T05:32:48.000Z</time>
      </trkpt>
      <trkpt lat="45.94455" lon="7.84991">
        <ele>3911.78</ele>
        <time>2014-04-07T05:33:48.170Z</time>
      </trkpt>
      <trkpt lat="45.94475" lon="7.85023">
        <ele>3920.52600064</ele>
        <time>2014-04-07T05:34:48.000Z</time>
      </trkpt>
      <trkpt lat="45.94479" lon="7.85059">
        <ele>3927.8422114276</ele>
        <time>2014-04-07T05:35:48.800Z</time>
      </trkpt>
      <trkpt lat="45.94476" lon="7.85076">
        <ele>3934.52600064</ele>
        <time>2014-04-07T05:36:48.000Z</time>
      </trkpt>
      <trkpt lat="45.94512" lon="7.85087">
        <ele>3943</ele>
        <time>2014-04-07T05:37:48.000Z</time>
      </trkpt>
      <trkpt lat="45.94499" lon="7.85131">
        <ele>3949</ele>
        <time>2014-04-07T05:38:48.170Z</time>
      </trkpt>
      <trkpt lat="45.94494" lon="7.85153">
        <ele>3957.25900288</ele>
        <time>2014-04-07T05:39:47.900Z</time>
      </trkpt>
      <trkpt lat="45.94505" lon="7.85188">
        <ele>3964.88</ele>
        <time>2014-04-07T05:40:49.170Z</time>
      </trkpt>
      <trkpt lat="45.94496" lon="7.85231">
        <ele>3972.52600064</ele>
        <time>2014-04-07T05:41:48.000Z</time>
      </trkpt>
      <trkpt lat="45.94486" lon="7.85263">
        <ele>3980.54000128</ele>
        <time>2014-04-07T05:42:48.070Z</time>
      </trkpt>
      <trkpt lat="45.94477" lon="7.85297">
        <ele>3986.75300096</ele>
        <time>2014-04-07T05:43:47.900Z</time>
      </trkpt>
      <trkpt lat="45.94464" lon="7.85331">
        <ele>3992.54000128</ele>
        <time>2014-04-07T05:44:48.070Z</time>
      </trkpt>
      <trkpt lat="45.94448" lon="7.85368">
        <ele>3998.76300032</ele>
        <time>2014-04-07T05:45:48.000Z</time>
      </trkpt>
      <trkpt lat="45.94431" lon="7.85403">
        <ele>4004</ele>
        <time>2014-04-07T05:46:48.070Z</time>
      </trkpt>
      <trkpt lat="45.94421" lon="7.85448">
        <ele>4009</ele>
        <time>2014-04-07T05:47:48.000Z</time>
      </trkpt>
      <trkpt lat="45.94417" lon="7.85485">
        <ele>4014.77000064</ele>
        <time>2014-04-07T05:48:48.070Z</time>
      </trkpt>
      <trkpt lat="45.94422" lon="7.85512">
        <ele>4020.5000019123</ele>
        <time>2014-04-07T05:49:47.900Z</time>
      </trkpt>
      <trkpt lat="45.94433" lon="7.85548">
        <ele>4029.31000192</ele>
        <time>2014-04-07T05:50:48.070Z</time>
      </trkpt>
      <trkpt lat="45.94448" lon="7.85567">
        <ele>4035.76300032</ele>
        <time>2014-04-07T05:51:48.000Z</time>
      </trkpt>
      <trkpt lat="45.94442" lon="7.85608">
        <ele>4042.7558026292</ele>
        <time>2014-04-07T05:52:47.950Z</time>
      </trkpt>
      <trkpt lat="45.94427" lon="7.85621">
        <ele>4050.54000128</ele>
        <time>2014-04-07T05:55:48.070Z</time>
      </trkpt>
      <trkpt lat="45.94411" lon="7.85627">
        <ele>4057.85299968</ele>
        <time>2014-04-07T05:56:48.900Z</time>
      </trkpt>
      <trkpt lat="45.94402" lon="7.85661">
        <ele>4063.24</ele>
        <time>2014-04-07T05:57:47.970Z</time>
      </trkpt>
      <trkpt lat="45.94399" lon="7.85677">
        <ele>4068.74300032</ele>
        <time>2014-04-07T05:58:47.800Z</time>
      </trkpt>
      <trkpt lat="45.94383" lon="7.85701">
        <ele>4075.78</ele>
        <time>2014-04-07T05:59:48.170Z</time>
      </trkpt>
      <trkpt lat="45.94371" lon="7.85721">
        <ele>4081.85299968</ele>
        <time>2014-04-07T06:00:48.900Z</time>
      </trkpt>
      <trkpt lat="45.94351" lon="7.8573">
        <ele>4087.76</ele>
        <time>2014-04-07T06:01:47.970Z</time>
      </trkpt>
      <trkpt lat="45.9434" lon="7.85755">
        <ele>4094.52600064</ele>
        <time>2014-04-07T06:02:48.000Z</time>
      </trkpt>
      <trkpt lat="45.94322" lon="7.85772">
        <ele>4102</ele>
        <time>2014-04-07T06:03:48.170Z</time>
      </trkpt>
      <trkpt lat="45.94307" lon="7.85793">
        <ele>4107.76300032</ele>
        <time>2014-04-07T06:04:48.000Z</time>
      </trkpt>
      <trkpt lat="45.94285" lon="7.85809">
        <ele>4116.5229537578</ele>
        <time>2014-04-07T06:06:48.000Z</time>
      </trkpt>
      <trkpt lat="45.94256" lon="7.85839">
        <ele>4124</ele>
        <time>2014-04-07T06:07:48.970Z</time>
      </trkpt>
      <trkpt lat="45.94232" lon="7.85855">
        <ele>4129.84300032</ele>
        <time>2014-04-07T06:08:48.800Z</time>
      </trkpt>
      <trkpt lat="45.94213" lon="7.85864">
        <ele>4138.11000064</ele>
        <time>2014-04-07T06:09:50.920Z</time>
      </trkpt>
      <trkpt lat="45.94202" lon="7.85878">
        <ele>4145.76300032</ele>
        <time>2014-04-07T06:10:48.000Z</time>
      </trkpt>
      <trkpt lat="45.94174" lon="7.8589">
        <ele>4153.78</ele>
        <time>2014-04-07T06:12:48.170Z</time>
      </trkpt>
      <trkpt lat="45.94146" lon="7.85895">
        <ele>4161.76300032</ele>
        <time>2014-04-07T06:13:48.000Z</time>
      </trkpt>
      <trkpt lat="45.94105" lon="7.85907">
        <ele>4168.56</ele>
        <time>2014-04-07T06:14:48.170Z</time>
      </trkpt>
      <trkpt lat="45.94089" lon="7.8591">
        <ele>4175.75300096</ele>
        <time>2014-04-07T06:15:47.900Z</time>
      </trkpt>
      <trkpt lat="45.94056" lon="7.85912">
        <ele>4183.64</ele>
        <time>2014-04-07T06:16:49.170Z</time>
      </trkpt>
      <trkpt lat="45.94038" lon="7.85918">
        <ele>4190.72900096</ele>
        <time>2014-04-07T06:17:47.660Z</time>
      </trkpt>
      <trkpt lat="45.94027" lon="7.85903">
        <ele>4192.08</ele>
        <time>2014-04-07T06:18:49.970Z</time>
      </trkpt>
      <trkpt lat="45.94007" lon="7.85913">
        <ele>4191</ele>
        <time>2014-04-07T06:20:19.820Z</time>
      </trkpt>
      <trkpt lat="45.94026" lon="7.85891">
        <ele>4192</ele>
        <time>2014-04-07T06:21:04.900Z</time>
      </trkpt>
      <trkpt lat="45.94029" lon="7.85903">
        <ele>4196.02999936</ele>
        <time>2014-04-07T06:22:30.070Z</time>
      </trkpt>
      <trkpt lat="45.94011" lon="7.85929">
        <ele>4207.88</ele>
        <time>2014-04-07T06:24:29.970Z</time>
      </trkpt>
      <trkpt lat="45.94015" lon="7.85944">
        <ele>4207</ele>
        <time>2014-04-07T06:27:50.820Z</time>
      </trkpt>
      <trkpt lat="45.9401" lon="7.85929">
        <ele>4208.68999936</ele>
        <time>2014-04-07T06:28:51.920Z</time>
      </trkpt>
      <trkpt lat="45.94022" lon="7.85922">
        <ele>4209</ele>
        <time>2014-04-07T06:30:49.900Z</time>
      </trkpt>
      <trkpt lat="45.94014" lon="7.85967">
        <ele>4211.77000064</ele>
        <time>2014-04-07T06:35:48.070Z</time>
      </trkpt>
      <trkpt lat="45.94001" lon="7.86006">
        <ele>4219</ele>
        <time>2014-04-07T06:36:48.000Z</time>
      </trkpt>
      <trkpt lat="45.94" lon="7.86041">
        <ele>4225.34</ele>
        <time>2014-04-07T06:37:48.170Z</time>
      </trkpt>
      <trkpt lat="45.94005" lon="7.8609">
        <ele>4232</ele>
        <time>2014-04-07T06:38:48.000Z</time>
      </trkpt>
      <trkpt lat="45.94006" lon="7.86128">
        <ele>4237</ele>
        <time>2014-04-07T06:39:48.970Z</time>
      </trkpt>
      <trkpt lat="45.94012" lon="7.8616">
        <ele>4242.5000019123</ele>
        <time>2014-04-07T06:40:47.900Z</time>
      </trkpt>
      <trkpt lat="45.94019" lon="7.86185">
        <ele>4250.512</ele>
        <time>2014-04-07T06:41:47.930Z</time>
      </trkpt>
      <trkpt lat="45.94025" lon="7.86208">
        <ele>4257.77200128</ele>
        <time>2014-04-07T06:42:49.800Z</time>
      </trkpt>
      <trkpt lat="45.94003" lon="7.86207">
        <ele>4262.2259045783</ele>
        <time>2014-04-07T06:43:47.800Z</time>
      </trkpt>
      <trkpt lat="45.94007" lon="7.86225">
        <ele>4267.88600064</ele>
        <time>2014-04-07T06:44:49.800Z</time>
      </trkpt>
      <trkpt lat="45.94021" lon="7.86258">
        <ele>4275</ele>
        <time>2014-04-07T06:45:50.920Z</time>
      </trkpt>
      <trkpt lat="45.93997" lon="7.86282">
        <ele>4281.05500032</ele>
        <time>2014-04-07T06:46:50.920Z</time>
      </trkpt>
      <trkpt lat="45.93978" lon="7.86263">
        <ele>4286.94300032</ele>
        <time>2014-04-07T06:47:49.800Z</time>
      </trkpt>
      <trkpt lat="45.93967" lon="7.86292">
        <ele>4300.9312054457</ele>
        <time>2014-04-07T06:50:50.170Z</time>
      </trkpt>
      <trkpt lat="45.93969" lon="7.86323">
        <ele>4307</ele>
        <time>2014-04-07T06:51:47.800Z</time>
      </trkpt>
      <trkpt lat="45.93974" lon="7.86354">
        <ele>4313.76</ele>
        <time>2014-04-07T06:52:47.970Z</time>
      </trkpt>
      <trkpt lat="45.93971" lon="7.86385">
        <ele>4319</ele>
        <time>2014-04-07T06:53:47.800Z</time>
      </trkpt>
      <trkpt lat="45.93948" lon="7.86374">
        <ele>4324</ele>
        <time>2014-04-07T06:54:47.970Z</time>
      </trkpt>
      <trkpt lat="45.93955" lon="7.86408">
        <ele>4329</ele>
        <time>2014-04-07T06:55:49.800Z</time>
      </trkpt>
      <trkpt lat="45.93941" lon="7.86422">
        <ele>4337.53000192</ele>
        <time>2014-04-07T06:56:53.020Z</time>
      </trkpt>
      <trkpt lat="45.93915" lon="7.8642">
        <ele>4341</ele>
        <time>2014-04-07T06:57:47.800Z</time>
      </trkpt>
      <trkpt lat="45.93916" lon="7.86395">
        <ele>4348.88</ele>
        <time>2014-04-07T06:58:49.970Z</time>
      </trkpt>
      <trkpt lat="45.93917" lon="7.86411">
        <ele>4352.76300032</ele>
        <time>2014-04-07T06:59:48.000Z</time>
      </trkpt>
      <trkpt lat="45.93907" lon="7.8641">
        <ele>4357</ele>
        <time>2014-04-07T07:00:47.900Z</time>
      </trkpt>
      <trkpt lat="45.93914" lon="7.86426">
        <ele>4361.94300032</ele>
        <time>2014-04-07T07:01:49.800Z</time>
      </trkpt>
      <trkpt lat="45.93926" lon="7.86448">
        <ele>4368.76300032</ele>
        <time>2014-04-07T07:02:48.000Z</time>
      </trkpt>
      <trkpt lat="45.93926" lon="7.8648">
        <ele>4373.77000064</ele>
        <time>2014-04-07T07:03:48.070Z</time>
      </trkpt>
      <trkpt lat="45.93954" lon="7.86498">
        <ele>4378</ele>
        <time>2014-04-07T07:04:47.870Z</time>
      </trkpt>
      <trkpt lat="45.9395" lon="7.86521">
        <ele>4382.78</ele>
        <time>2014-04-07T07:05:48.170Z</time>
      </trkpt>
      <trkpt lat="45.93946" lon="7.8654">
        <ele>4387.104</ele>
        <time>2014-04-07T07:06:49.850Z</time>
      </trkpt>
      <trkpt lat="45.93953" lon="7.86523">
        <ele>4389</ele>
        <time>2014-04-07T07:07:50.920Z</time>
      </trkpt>
      <trkpt lat="45.93962" lon="7.86552">
        <ele>4390</ele>
        <time>2014-04-07T07:10:47.940Z</time>
      </trkpt>
      <trkpt lat="45.93983" lon="7.86574">
        <ele>4391</ele>
        <time>2014-04-07T07:11:48.970Z</time>
      </trkpt>
      <trkpt lat="45.93988" lon="7.8661">
        <ele>4393.74700032</ele>
        <time>2014-04-07T07:12:47.840Z</time>
      </trkpt>
      <trkpt lat="45.93968" lon="7.86611">
        <ele>4399</ele>
        <time>2014-04-07T07:13:50.920Z</time>
      </trkpt>
      <trkpt lat="45.9396" lon="7.86622">
        <ele>4407.22000128</ele>
        <time>2014-04-07T07:15:50.920Z</time>
      </trkpt>
      <trkpt lat="45.93934" lon="7.86613">
        <ele>4414.75800064</ele>
        <time>2014-04-07T07:16:47.950Z</time>
      </trkpt>
      <trkpt lat="45.9392" lon="7.86597">
        <ele>4416</ele>
        <time>2014-04-07T07:17:48.000Z</time>
      </trkpt>
      <trkpt lat="45.93907" lon="7.86588">
        <ele>4422.748</ele>
        <time>2014-04-07T07:18:47.850Z</time>
      </trkpt>
      <trkpt lat="45.93896" lon="7.86578">
        <ele>4427</ele>
        <time>2014-04-07T07:19:48.000Z</time>
      </trkpt>
      <trkpt lat="45.9387" lon="7.86575">
        <ele>4431</ele>
        <time>2014-04-07T07:20:48.170Z</time>
      </trkpt>
      <trkpt lat="45.93859" lon="7.86583">
        <ele>4443</ele>
        <time>2014-04-07T07:22:48.170Z</time>
      </trkpt>
      <trkpt lat="45.93882" lon="7.86615">
        <ele>4445</ele>
        <time>2014-04-07T07:23:48.000Z</time>
      </trkpt>
      <trkpt lat="45.93886" lon="7.86642">
        <ele>4446.56</ele>
        <time>2014-04-07T07:24:48.170Z</time>
      </trkpt>
      <trkpt lat="45.93883" lon="7.86672">
        <ele>4456.78</ele>
        <time>2014-04-07T07:26:48.170Z</time>
      </trkpt>
      <trkpt lat="45.93863" lon="7.86681">
        <ele>4463</ele>
        <time>2014-04-07T07:27:48.000Z</time>
      </trkpt>
      <trkpt lat="45.93867" lon="7.86712">
        <ele>4469</ele>
        <time>2014-04-07T07:28:50.920Z</time>
      </trkpt>
      <trkpt lat="45.9385" lon="7.86726">
        <ele>4472.75300096</ele>
        <time>2014-04-07T07:29:47.900Z</time>
      </trkpt>
      <trkpt lat="45.93837" lon="7.86725">
        <ele>4477.78</ele>
        <time>2014-04-07T07:30:48.170Z</time>
      </trkpt>
      <trkpt lat="45.93821" lon="7.8674">
        <ele>4484.7576962041</ele>
        <time>2014-04-07T07:31:48.000Z</time>
      </trkpt>
      <trkpt lat="45.93802" lon="7.86757">
        <ele>4490.78</ele>
        <time>2014-04-07T07:32:48.170Z</time>
      </trkpt>
      <trkpt lat="45.93789" lon="7.86793">
        <ele>4501.7620485141</ele>
        <time>2014-04-07T07:34:48.000Z</time>
      </trkpt>
      <trkpt lat="45.93764" lon="7.86812">
        <ele>4506.77299968</ele>
        <time>2014-04-07T07:35:48.100Z</time>
      </trkpt>
      <trkpt lat="45.93772" lon="7.86837">
        <ele>4512</ele>
        <time>2014-04-07T07:37:50.920Z</time>
      </trkpt>
      <trkpt lat="45.93752" lon="7.86846">
        <ele>4514</ele>
        <time>2014-04-07T07:39:49.970Z</time>
      </trkpt>
      <trkpt lat="45.93775" lon="7.86843">
        <ele>4512</ele>
        <time>2014-04-07T07:41:52.720Z</time>
      </trkpt>
      <trkpt lat="45.93759" lon="7.86843">
        <ele>4511.23699968</ele>
        <time>2014-04-07T07:42:48.000Z</time>
      </trkpt>
      <trkpt lat="45.93768" lon="7.86836">
        <ele>4513</ele>
        <time>2014-04-07T07:43:49.070Z</time>
      </trkpt>
      <trkpt lat="45.93745" lon="7.86843">
        <ele>4513</ele>
        <time>2014-04-07T07:50:49.800Z</time>
      </trkpt>
      <trkpt lat="45.93754" lon="7.86834">
        <ele>4513</ele>
        <time>2014-04-07T07:52:48.000Z</time>
      </trkpt>
      <trkpt lat="45.93783" lon="7.86839">
        <ele>4513</ele>
        <time>2014-04-07T07:54:50.920Z</time>
      </trkpt>
      <trkpt lat="45.93747" lon="7.86829">
        <ele>4513</ele>
        <time>2014-04-07T07:55:50.820Z</time>
      </trkpt>
      <trkpt lat="45.93755" lon="7.86846">
        <ele>4513</ele>
        <time>2014-04-07T07:56:50.920Z</time>
      </trkpt>
      <trkpt lat="45.93768" lon="7.86842">
        <ele>4514</ele>
        <time>2014-04-07T07:58:48.170Z</time>
      </trkpt>
      <trkpt lat="45.93743" lon="7.86819">
        <ele>4514</ele>
        <time>2014-04-07T08:02:48.170Z</time>
      </trkpt>
      <trkpt lat="45.93789" lon="7.86808">
        <ele>4514</ele>
        <time>2014-04-07T08:03:48.120Z</time>
      </trkpt>
      <trkpt lat="45.93803" lon="7.86839">
        <ele>4514</ele>
        <time>2014-04-07T08:04:48.170Z</time>
      </trkpt>
      <trkpt lat="45.93838" lon="7.86832">
        <ele>4515</ele>
        <time>2014-04-07T08:05:53.920Z</time>
      </trkpt>
      <trkpt lat="45.93855" lon="7.86857">
        <ele>4522</ele>
        <time>2014-04-07T08:07:48.120Z</time>
      </trkpt>
      <trkpt lat="45.93875" lon="7.86875">
        <ele>4528.5891787345</ele>
        <time>2014-04-07T08:08:48.320Z</time>
      </trkpt>
      <trkpt lat="45.93883" lon="7.86884">
        <ele>4533</ele>
        <time>2014-04-07T08:09:48.120Z</time>
      </trkpt>
      <trkpt lat="45.9389" lon="7.86899">
        <ele>4538.32500096</ele>
        <time>2014-04-07T08:10:48.120Z</time>
      </trkpt>
      <trkpt lat="45.93903" lon="7.86905">
        <ele>4539</ele>
        <time>2014-04-07T08:11:48.170Z</time>
      </trkpt>
      <trkpt lat="45.93922" lon="7.86901">
        <ele>4539</ele>
        <time>2014-04-07T08:12:48.120Z</time>
      </trkpt>
      <trkpt lat="45.93934" lon="7.8691">
        <ele>4539</ele>
        <time>2014-04-07T08:13:48.170Z</time>
      </trkpt>
      <trkpt lat="45.93946" lon="7.86911">
        <ele>4536</ele>
        <time>2014-04-07T08:15:48.170Z</time>
      </trkpt>
      <trkpt lat="45.93967" lon="7.86915">
        <ele>4540</ele>
        <time>2014-04-07T08:17:48.170Z</time>
      </trkpt>
      <trkpt lat="45.93978" lon="7.86914">
        <ele>4545.53800192</ele>
        <time>2014-04-07T08:18:48.060Z</time>
      </trkpt>
      <trkpt lat="45.93991" lon="7.86925">
        <ele>4547.76900096</ele>
        <time>2014-04-07T08:20:48.060Z</time>
      </trkpt>
      <trkpt lat="45.94" lon="7.86918">
        <ele>4550</ele>
        <time>2014-04-07T08:23:48.170Z</time>
      </trkpt>
      <trkpt lat="45.94021" lon="7.86911">
        <ele>4546.3236478228</ele>
        <time>2014-04-07T08:25:48.120Z</time>
      </trkpt>
      <trkpt lat="45.94037" lon="7.86914">
        <ele>4548</ele>
        <time>2014-04-07T08:27:48.120Z</time>
      </trkpt>
      <trkpt lat="45.94049" lon="7.8692">
        <ele>4552</ele>
        <time>2014-04-07T08:28:48.060Z</time>
      </trkpt>
      <trkpt lat="45.94071" lon="7.8693">
        <ele>4560</ele>
        <time>2014-04-07T08:30:48.970Z</time>
      </trkpt>
      <trkpt lat="45.94105" lon="7.86931">
        <ele>4562</ele>
        <time>2014-04-07T08:31:48.120Z</time>
      </trkpt>
      <trkpt lat="45.94119" lon="7.86937">
        <ele>4566</ele>
        <time>2014-04-07T08:32:49.970Z</time>
      </trkpt>
      <trkpt lat="45.9413" lon="7.86934">
        <ele>4563</ele>
        <time>2014-04-07T08:34:48.170Z</time>
      </trkpt>
      <trkpt lat="45.94142" lon="7.86951">
        <ele>4566.77500032</ele>
        <time>2014-04-07T08:35:48.120Z</time>
      </trkpt>
      <trkpt lat="45.94149" lon="7.86966">
        <ele>4577</ele>
        <time>2014-04-07T08:37:48.120Z</time>
      </trkpt>
      <trkpt lat="45.94162" lon="7.86969">
        <ele>4581.86</ele>
        <time>2014-04-07T08:38:48.970Z</time>
      </trkpt>
      <trkpt lat="45.94173" lon="7.86984">
        <ele>4588</ele>
        <time>2014-04-07T08:39:48.120Z</time>
      </trkpt>
      <trkpt lat="45.94178" lon="7.86997">
        <ele>4594</ele>
        <time>2014-04-07T08:41:48.120Z</time>
      </trkpt>
      <trkpt lat="45.94189" lon="7.86991">
        <ele>4603</ele>
        <time>2014-04-07T08:52:48.900Z</time>
      </trkpt>
      <trkpt lat="45.94201" lon="7.86986">
        <ele>4608</ele>
        <time>2014-04-07T08:55:48.370Z</time>
      </trkpt>
      <trkpt lat="45.94186" lon="7.86988">
        <ele>4606</ele>
        <time>2014-04-07T09:01:48.060Z</time>
      </trkpt>
      <trkpt lat="45.94177" lon="7.86996">
        <ele>4598</ele>
        <time>2014-04-07T09:05:48.920Z</time>
      </trkpt>
      <trkpt lat="45.94172" lon="7.86975">
        <ele>4587.44999936</ele>
        <time>2014-04-07T09:15:48.120Z</time>
      </trkpt>
      <trkpt lat="45.94153" lon="7.86966">
        <ele>4581.2254507257</ele>
        <time>2014-04-07T09:16:48.120Z</time>
      </trkpt>
      <trkpt lat="45.9413" lon="7.86963">
        <ele>4576</ele>
        <time>2014-04-07T09:17:48.120Z</time>
      </trkpt>
      <trkpt lat="45.94134" lon="7.86948">
        <ele>4570.67499904</ele>
        <time>2014-04-07T09:18:48.120Z</time>
      </trkpt>
      <trkpt lat="45.94128" lon="7.8693">
        <ele>4568</ele>
        <time>2014-04-07T09:19:48.170Z</time>
      </trkpt>
      <trkpt lat="45.94117" lon="7.86948">
        <ele>4563.45400064</ele>
        <time>2014-04-07T09:21:48.100Z</time>
      </trkpt>
      <trkpt lat="45.94093" lon="7.86942">
        <ele>4566</ele>
        <time>2014-04-07T09:23:48.170Z</time>
      </trkpt>
      <trkpt lat="45.94078" lon="7.86937">
        <ele>4563</ele>
        <time>2014-04-07T09:24:48.120Z</time>
      </trkpt>
      <trkpt lat="45.9406" lon="7.86934">
        <ele>4561.22</ele>
        <time>2014-04-07T09:25:48.170Z</time>
      </trkpt>
      <trkpt lat="45.94047" lon="7.86922">
        <ele>4554</ele>
        <time>2014-04-07T09:27:48.170Z</time>
      </trkpt>
      <trkpt lat="45.94032" lon="7.86915">
        <ele>4548.22199936</ele>
        <time>2014-04-07T09:29:48.150Z</time>
      </trkpt>
      <trkpt lat="45.94013" lon="7.86919">
        <ele>4546</ele>
        <time>2014-04-07T09:30:48.120Z</time>
      </trkpt>
      <trkpt lat="45.94002" lon="7.8692">
        <ele>4547.56</ele>
        <time>2014-04-07T09:31:48.170Z</time>
      </trkpt>
      <trkpt lat="45.93988" lon="7.86923">
        <ele>4549</ele>
        <time>2014-04-07T09:34:48.060Z</time>
      </trkpt>
      <trkpt lat="45.93974" lon="7.86929">
        <ele>4547</ele>
        <time>2014-04-07T09:37:48.120Z</time>
      </trkpt>
      <trkpt lat="45.93964" lon="7.86924">
        <ele>4546</ele>
        <time>2014-04-07T09:41:48.100Z</time>
      </trkpt>
      <trkpt lat="45.93951" lon="7.86913">
        <ele>4539</ele>
        <time>2014-04-07T09:43:48.120Z</time>
      </trkpt>
      <trkpt lat="45.93939" lon="7.86917">
        <ele>4537.78</ele>
        <time>2014-04-07T09:44:48.170Z</time>
      </trkpt>
      <trkpt lat="45.93916" lon="7.86914">
        <ele>4542</ele>
        <time>2014-04-07T09:46:48.170Z</time>
      </trkpt>
      <trkpt lat="45.93906" lon="7.8691">
        <ele>4541</ele>
        <time>2014-04-07T09:47:48.120Z</time>
      </trkpt>
      <trkpt lat="45.9388" lon="7.86907">
        <ele>4541</ele>
        <time>2014-04-07T09:48:48.170Z</time>
      </trkpt>
      <trkpt lat="45.93851" lon="7.86908">
        <ele>4537</ele>
        <time>2014-04-07T09:49:48.120Z</time>
      </trkpt>
      <trkpt lat="45.9383" lon="7.86893">
        <ele>4527.2254507257</ele>
        <time>2014-04-07T09:50:48.120Z</time>
      </trkpt>
      <trkpt lat="45.93804" lon="7.86863">
        <ele>4521.22499968</ele>
        <time>2014-04-07T09:51:48.120Z</time>
      </trkpt>
      <trkpt lat="45.93765" lon="7.86856">
        <ele>4515.28</ele>
        <time>2014-04-07T09:52:58.970Z</time>
      </trkpt>
      <trkpt lat="45.93759" lon="7.86843">
        <ele>4518</ele>
        <time>2014-04-07T09:54:52.770Z</time>
      </trkpt>
      <trkpt lat="45.93789" lon="7.86917">
        <ele>4517</ele>
        <time>2014-04-07T09:55:48.170Z</time>
      </trkpt>
      <trkpt lat="45.93769" lon="7.86837">
        <ele>4516</ele>
        <time>2014-04-07T09:56:48.120Z</time>
      </trkpt>
      <trkpt lat="45.93755" lon="7.86835">
        <ele>4516</ele>
        <time>2014-04-07T09:57:48.170Z</time>
      </trkpt>
      <trkpt lat="45.93772" lon="7.86827">
        <ele>4517.55000064</ele>
        <time>2014-04-07T09:58:48.120Z</time>
      </trkpt>
      <trkpt lat="45.93908" lon="7.86839">
        <ele>4518</ele>
        <time>2014-04-07T09:59:58.720Z</time>
      </trkpt>
      <trkpt lat="45.93796" lon="7.86843">
        <ele>4518</ele>
        <time>2014-04-07T10:00:55.750Z</time>
      </trkpt>
      <trkpt lat="45.93766" lon="7.86874">
        <ele>4518.92</ele>
        <time>2014-04-07T10:01:49.970Z</time>
      </trkpt>
      <trkpt lat="45.93772" lon="7.86847">
        <ele>4517</ele>
        <time>2014-04-07T10:02:50.970Z</time>
      </trkpt>
      <trkpt lat="45.93741" lon="7.8684">
        <ele>4516</ele>
        <time>2014-04-07T10:03:59.720Z</time>
      </trkpt>
      <trkpt lat="45.93761" lon="7.86934">
        <ele>4516.0540534654</ele>
        <time>2014-04-07T10:04:50.920Z</time>
      </trkpt>
      <trkpt lat="45.93755" lon="7.86844">
        <ele>4517</ele>
        <time>2014-04-07T10:05:56.720Z</time>
      </trkpt>
      <trkpt lat="45.93766" lon="7.86848">
        <ele>4517</ele>
        <time>2014-04-07T10:06:49.920Z</time>
      </trkpt>
      <trkpt lat="45.93754" lon="7.86851">
        <ele>4517</ele>
        <time>2014-04-07T10:07:50.950Z</time>
      </trkpt>
      <trkpt lat="45.93728" lon="7.86803">
        <ele>4524.05500032</ele>
        <time>2014-04-07T10:08:50.920Z</time>
      </trkpt>
      <trkpt lat="45.93741" lon="7.86814">
        <ele>4528.77500032</ele>
        <time>2014-04-07T10:09:48.120Z</time>
      </trkpt>
      <trkpt lat="45.93726" lon="7.86834">
        <ele>4533</ele>
        <time>2014-04-07T10:10:48.170Z</time>
      </trkpt>
      <trkpt lat="45.9373" lon="7.86793">
        <ele>4537.55000064</ele>
        <time>2014-04-07T10:11:48.120Z</time>
      </trkpt>
      <trkpt lat="45.93716" lon="7.86791">
        <ele>4543.18</ele>
        <time>2014-04-07T10:13:50.970Z</time>
      </trkpt>
      <trkpt lat="45.93732" lon="7.86791">
        <ele>4553</ele>
        <time>2014-04-07T10:16:50.920Z</time>
      </trkpt>
      <trkpt lat="45.93711" lon="7.86784">
        <ele>4554</ele>
        <time>2014-04-07T10:17:49.920Z</time>
      </trkpt>
      <trkpt lat="45.93737" lon="7.86802">
        <ele>4558</ele>
        <time>2014-04-07T10:19:52.970Z</time>
      </trkpt>
      <trkpt lat="45.93712" lon="7.8678">
        <ele>4560</ele>
        <time>2014-04-07T10:20:50.920Z</time>
      </trkpt>
      <trkpt lat="45.93735" lon="7.86779">
        <ele>4560</ele>
        <time>2014-04-07T10:21:48.120Z</time>
      </trkpt>
      <trkpt lat="45.93716" lon="7.86771">
        <ele>4562</ele>
        <time>2014-04-07T10:22:49.970Z</time>
      </trkpt>
      <trkpt lat="45.93719" lon="7.86786">
        <ele>4567</ele>
        <time>2014-04-07T10:26:48.060Z</time>
      </trkpt>
      <trkpt lat="45.93705" lon="7.86762">
        <ele>4567.78</ele>
        <time>2014-04-07T10:27:48.170Z</time>
      </trkpt>
      <trkpt lat="45.9371" lon="7.86796">
        <ele>4567</ele>
        <time>2014-04-07T10:28:50.970Z</time>
      </trkpt>
      <trkpt lat="45.93717" lon="7.86778">
        <ele>4567</ele>
        <time>2014-04-07T10:29:51.920Z</time>
      </trkpt>
      <trkpt lat="45.93754" lon="7.86772">
        <ele>4572.31000064</ele>
        <time>2014-04-07T10:32:21.920Z</time>
      </trkpt>
      <trkpt lat="45.93701" lon="7.86776">
        <ele>4574</ele>
        <time>2014-04-07T10:33:06.920Z</time>
      </trkpt>
      <trkpt lat="45.93721" lon="7.86768">
        <ele>4578.54499968</ele>
        <time>2014-04-07T10:37:14.920Z</time>
      </trkpt>
      <trkpt lat="45.93869" lon="7.86775">
        <ele>4579</ele>
        <time>2014-04-07T10:38:50.920Z</time>
      </trkpt>
      <trkpt lat="45.93739" lon="7.86766">
        <ele>4578.34499968</ele>
        <time>2014-04-07T10:40:06.920Z</time>
      </trkpt>
      <trkpt lat="45.93716" lon="7.86761">
        <ele>4587</ele>
        <time>2014-04-07T10:48:56.920Z</time>
      </trkpt>
      <trkpt lat="45.93689" lon="7.86748">
        <ele>4603.3432846466</ele>
        <time>2014-04-07T10:56:53.820Z</time>
      </trkpt>
      <trkpt lat="45.93695" lon="7.86746">
        <ele>4605.951098155</ele>
        <time>2014-04-07T11:01:29.900Z</time>
      </trkpt>
      <trkpt lat="45.93688" lon="7.86733">
        <ele>4619</ele>
        <time>2014-04-07T11:04:48.100Z</time>
      </trkpt>
      <trkpt lat="45.93682" lon="7.86709">
        <ele>4627</ele>
        <time>2014-04-07T11:07:48.170Z</time>
      </trkpt>
      <trkpt lat="45.93685" lon="7.86687">
        <ele>4628</ele>
        <time>2014-04-07T11:12:48.120Z</time>
      </trkpt>
      <trkpt lat="45.93688" lon="7.86673">
        <ele>4631.77500032</ele>
        <time>2014-04-07T11:14:48.120Z</time>
      </trkpt>
      <trkpt lat="45.93694" lon="7.86693">
        <ele>4628</ele>
        <time>2014-04-07T11:24:48.170Z</time>
      </trkpt>
      <trkpt lat="45.93684" lon="7.86701">
        <ele>4628</ele>
        <time>2014-04-07T11:25:48.120Z</time>
      </trkpt>
      <trkpt lat="45.93686" lon="7.8672">
        <ele>4627</ele>
        <time>2014-04-07T11:27:48.120Z</time>
      </trkpt>
      <trkpt lat="45.93686" lon="7.8674">
        <ele>4625</ele>
        <time>2014-04-07T11:31:48.120Z</time>
      </trkpt>
      <trkpt lat="45.93697" lon="7.86736">
        <ele>4617</ele>
        <time>2014-04-07T11:41:50.920Z</time>
      </trkpt>
      <trkpt lat="45.93685" lon="7.86738">
        <ele>4610</ele>
        <time>2014-04-07T11:44:51.970Z</time>
      </trkpt>
      <trkpt lat="45.93698" lon="7.86756">
        <ele>4607.44</ele>
        <time>2014-04-07T11:45:48.170Z</time>
      </trkpt>
      <trkpt lat="45.93972" lon="7.86734">
        <ele>4589</ele>
        <time>2014-04-07T11:55:01.870Z</time>
      </trkpt>
      <trkpt lat="45.93733" lon="7.86763">
        <ele>4588</ele>
        <time>2014-04-07T11:55:52.970Z</time>
      </trkpt>
      <trkpt lat="45.93742" lon="7.86762">
        <ele>4583.27000064</ele>
        <time>2014-04-07T11:57:33.070Z</time>
      </trkpt>
      <trkpt lat="45.93711" lon="7.86777">
        <ele>4598.45500032</ele>
        <time>2014-04-07T12:00:14.920Z</time>
      </trkpt>
      <trkpt lat="45.93701" lon="7.86778">
        <ele>4598.9061870459</ele>
        <time>2014-04-07T12:00:59.920Z</time>
      </trkpt>
      <trkpt lat="45.93721" lon="7.86768">
        <ele>4596.35500032</ele>
        <time>2014-04-07T12:02:53.920Z</time>
      </trkpt>
      <trkpt lat="45.9374" lon="7.86762">
        <ele>4596</ele>
        <time>2014-04-07T12:03:51.900Z</time>
      </trkpt>
      <trkpt lat="45.93694" lon="7.86779">
        <ele>4593</ele>
        <time>2014-04-07T12:04:59.920Z</time>
      </trkpt>
      <trkpt lat="45.93773" lon="7.86749">
        <ele>4593</ele>
        <time>2014-04-07T12:05:53.920Z</time>
      </trkpt>
      <trkpt lat="45.93717" lon="7.86771">
        <ele>4591.2254507257</ele>
        <time>2014-04-07T12:06:48.120Z</time>
      </trkpt>
      <trkpt lat="45.93717" lon="7.86788">
        <ele>4587.04499968</ele>
        <time>2014-04-07T12:07:49.920Z</time>
      </trkpt>
      <trkpt lat="45.93745" lon="7.86794">
        <ele>4586</ele>
        <time>2014-04-07T12:08:50.970Z</time>
      </trkpt>
      <trkpt lat="45.93723" lon="7.86788">
        <ele>4586.96</ele>
        <time>2014-04-07T12:09:49.970Z</time>
      </trkpt>
      <trkpt lat="45.93735" lon="7.86772">
        <ele>4586.05500032</ele>
        <time>2014-04-07T12:11:50.920Z</time>
      </trkpt>
      <trkpt lat="45.9368" lon="7.86805">
        <ele>4585.68999936</ele>
        <time>2014-04-07T12:13:51.920Z</time>
      </trkpt>
      <trkpt lat="45.9369" lon="7.86784">
        <ele>4583.22499968</ele>
        <time>2014-04-07T12:14:48.120Z</time>
      </trkpt>
      <trkpt lat="45.93788" lon="7.86769">
        <ele>4582</ele>
        <time>2014-04-07T12:15:56.920Z</time>
      </trkpt>
      <trkpt lat="45.93716" lon="7.86783">
        <ele>4582</ele>
        <time>2014-04-07T12:16:53.970Z</time>
      </trkpt>
      <trkpt lat="45.93743" lon="7.8678">
        <ele>4580</ele>
        <time>2014-04-07T12:17:51.920Z</time>
      </trkpt>
      <trkpt lat="45.93753" lon="7.86783">
        <ele>4576</ele>
        <time>2014-04-07T12:18:48.120Z</time>
      </trkpt>
      <trkpt lat="45.93729" lon="7.86783">
        <ele>4576</ele>
        <time>2014-04-07T12:19:48.970Z</time>
      </trkpt>
      <trkpt lat="45.93723" lon="7.86794">
        <ele>4575.7734529192</ele>
        <time>2014-04-07T12:20:48.120Z</time>
      </trkpt>
      <trkpt lat="45.93711" lon="7.86795">
        <ele>4576</ele>
        <time>2014-04-07T12:24:52.920Z</time>
      </trkpt>
      <trkpt lat="45.93745" lon="7.86789">
        <ele>4575</ele>
        <time>2014-04-07T12:25:50.970Z</time>
      </trkpt>
      <trkpt lat="45.93725" lon="7.86792">
        <ele>4573.68999936</ele>
        <time>2014-04-07T12:26:51.920Z</time>
      </trkpt>
      <trkpt lat="45.93697" lon="7.86799">
        <ele>4568.46199808</ele>
        <time>2014-04-07T12:27:48.060Z</time>
      </trkpt>
      <trkpt lat="45.93734" lon="7.86802">
        <ele>4566.84499968</ele>
        <time>2014-04-07T12:28:51.920Z</time>
      </trkpt>
      <trkpt lat="45.93743" lon="7.86814">
        <ele>4551</ele>
        <time>2014-04-07T12:30:48.170Z</time>
      </trkpt>
      <trkpt lat="45.93763" lon="7.8685">
        <ele>4542</ele>
        <time>2014-04-07T12:31:56.970Z</time>
      </trkpt>
      <trkpt lat="45.93758" lon="7.86835">
        <ele>4542.23099904</ele>
        <time>2014-04-07T12:33:48.060Z</time>
      </trkpt>
      <trkpt lat="45.93749" lon="7.86852">
        <ele>4542</ele>
        <time>2014-04-07T12:34:50.720Z</time>
      </trkpt>
      <trkpt lat="45.93782" lon="7.86832">
        <ele>4542.17100032</ele>
        <time>2014-04-07T12:35:48.660Z</time>
      </trkpt>
      <trkpt lat="45.93763" lon="7.86842">
        <ele>4541.22</ele>
        <time>2014-04-07T12:36:48.170Z</time>
      </trkpt>
      <trkpt lat="45.93779" lon="7.86825">
        <ele>4542.7674655377</ele>
        <time>2014-04-07T12:37:48.060Z</time>
      </trkpt>
      <trkpt lat="45.93763" lon="7.86838">
        <ele>4543.44</ele>
        <time>2014-04-07T12:38:48.170Z</time>
      </trkpt>
      <trkpt lat="45.93758" lon="7.86921">
        <ele>4543</ele>
        <time>2014-04-07T12:40:48.110Z</time>
      </trkpt>
      <trkpt lat="45.93761" lon="7.8685">
        <ele>4543</ele>
        <time>2014-04-07T12:41:48.060Z</time>
      </trkpt>
      <trkpt lat="45.93773" lon="7.8686">
        <ele>4544.92</ele>
        <time>2014-04-07T12:43:49.970Z</time>
      </trkpt>
      <trkpt lat="45.93736" lon="7.8685">
        <ele>4545</ele>
        <time>2014-04-07T12:44:49.110Z</time>
      </trkpt>
      <trkpt lat="45.93748" lon="7.86847">
        <ele>4543</ele>
        <time>2014-04-07T12:45:48.170Z</time>
      </trkpt>
      <trkpt lat="45.9376" lon="7.86847">
        <ele>4543</ele>
        <time>2014-04-07T12:47:48.170Z</time>
      </trkpt>
      <trkpt lat="45.93756" lon="7.86833">
        <ele>4542.79500032</ele>
        <time>2014-04-07T12:48:48.320Z</time>
      </trkpt>
      <trkpt lat="45.93735" lon="7.86837">
        <ele>4541.2</ele>
        <time>2014-04-07T12:49:48.370Z</time>
      </trkpt>
      <trkpt lat="45.93754" lon="7.86896">
        <ele>4542</ele>
        <time>2014-04-07T12:50:48.320Z</time>
      </trkpt>
      <trkpt lat="45.93761" lon="7.86833">
        <ele>4542</ele>
        <time>2014-04-07T12:51:50.910Z</time>
      </trkpt>
      <trkpt lat="45.93788" lon="7.86834">
        <ele>4542</ele>
        <time>2014-04-07T12:54:49.320Z</time>
      </trkpt>
      <trkpt lat="45.93862" lon="7.86716">
        <ele>4500.62199552</ele>
        <time>2014-04-07T12:55:50.910Z</time>
      </trkpt>
      <trkpt lat="45.93852" lon="7.86593">
        <ele>4476</ele>
        <time>2014-04-07T12:56:49.390Z</time>
      </trkpt>
      <trkpt lat="45.93888" lon="7.8658">
        <ele>4457.430862641</ele>
        <time>2014-04-07T12:57:48.330Z</time>
      </trkpt>
      <trkpt lat="45.93954" lon="7.86624">
        <ele>4447.0499968</ele>
        <time>2014-04-07T12:58:49.320Z</time>
      </trkpt>
      <trkpt lat="45.93968" lon="7.8659">
        <ele>4434.22599936</ele>
        <time>2014-04-07T12:59:48.110Z</time>
      </trkpt>
      <trkpt lat="45.93948" lon="7.86602">
        <ele>4421</ele>
        <time>2014-04-07T13:00:48.170Z</time>
      </trkpt>
      <trkpt lat="45.93964" lon="7.86571">
        <ele>4420</ele>
        <time>2014-04-07T13:01:48.710Z</time>
      </trkpt>
      <trkpt lat="45.93984" lon="7.8653">
        <ele>4388.8299968</ele>
        <time>2014-04-07T13:02:50.710Z</time>
      </trkpt>
      <trkpt lat="45.94022" lon="7.86512">
        <ele>4370.22599936</ele>
        <time>2014-04-07T13:03:48.110Z</time>
      </trkpt>
      <trkpt lat="45.94035" lon="7.86511">
        <ele>4370.78</ele>
        <time>2014-04-07T13:04:48.170Z</time>
      </trkpt>
      <trkpt lat="45.94013" lon="7.86512">
        <ele>4371</ele>
        <time>2014-04-07T13:06:48.130Z</time>
      </trkpt>
      <trkpt lat="45.94011" lon="7.86527">
        <ele>4371</ele>
        <time>2014-04-07T13:07:48.110Z</time>
      </trkpt>
      <trkpt lat="45.94075" lon="7.86528">
        <ele>4354.377240797</ele>
        <time>2014-04-07T13:08:50.760Z</time>
      </trkpt>
      <trkpt lat="45.94132" lon="7.86528">
        <ele>4322</ele>
        <time>2014-04-07T13:09:49.900Z</time>
      </trkpt>
      <trkpt lat="45.94193" lon="7.86464">
        <ele>4262.4</ele>
        <time>2014-04-07T13:10:48.170Z</time>
      </trkpt>
      <trkpt lat="45.9423" lon="7.86134">
        <ele>4180.0070169183</ele>
        <time>2014-04-07T13:11:51.920Z</time>
      </trkpt>
      <trkpt lat="45.94317" lon="7.85801">
        <ele>4147</ele>
        <time>2014-04-07T13:12:53.760Z</time>
      </trkpt>
      <trkpt lat="45.94396" lon="7.85682">
        <ele>4118.04999424</ele>
        <time>2014-04-07T13:13:48.120Z</time>
      </trkpt>
      <trkpt lat="45.94386" lon="7.85653">
        <ele>4109.7685378876</ele>
        <time>2014-04-07T13:14:48.060Z</time>
      </trkpt>
      <trkpt lat="45.94434" lon="7.85255">
        <ele>4040.57499776</ele>
        <time>2014-04-07T13:15:48.120Z</time>
      </trkpt>
      <trkpt lat="45.94493" lon="7.85155">
        <ele>4008.62296832</ele>
        <time>2014-04-07T13:16:48.060Z</time>
      </trkpt>
      <trkpt lat="45.94494" lon="7.85131">
        <ele>3997</ele>
        <time>2014-04-07T13:17:48.370Z</time>
      </trkpt>
      <trkpt lat="45.94438" lon="7.84914">
        <ele>3925.23099904</ele>
        <time>2014-04-07T13:18:48.060Z</time>
      </trkpt>
      <trkpt lat="45.94581" lon="7.8461">
        <ele>3830.3</ele>
        <time>2014-04-07T13:19:48.170Z</time>
      </trkpt>
      <trkpt lat="45.94679" lon="7.84445">
        <ele>3762.884</ele>
        <time>2014-04-07T13:20:49.850Z</time>
      </trkpt>
      <trkpt lat="45.94798" lon="7.84261">
        <ele>3706.48</ele>
        <time>2014-04-07T13:21:49.970Z</time>
      </trkpt>
      <trkpt lat="45.94805" lon="7.84184">
        <ele>3693</ele>
        <time>2014-04-07T13:22:49.860Z</time>
      </trkpt>
      <trkpt lat="45.948" lon="7.8402">
        <ele>3657</ele>
        <time>2014-04-07T13:23:48.170Z</time>
      </trkpt>
      <trkpt lat="45.94903" lon="7.84061">
        <ele>3629</ele>
        <time>2014-04-07T13:24:51.970Z</time>
      </trkpt>
      <trkpt lat="45.94956" lon="7.84071">
        <ele>3622.12</ele>
        <time>2014-04-07T13:25:48.970Z</time>
      </trkpt>
      <trkpt lat="45.95037" lon="7.8396">
        <ele>3574</ele>
        <time>2014-04-07T13:26:50.970Z</time>
      </trkpt>
      <trkpt lat="45.94951" lon="7.83851">
        <ele>3562.08</ele>
        <time>2014-04-07T13:27:48.170Z</time>
      </trkpt>
      <trkpt lat="45.94839" lon="7.83519">
        <ele>3509.1327354042</ele>
        <time>2014-04-07T13:28:48.120Z</time>
      </trkpt>
      <trkpt lat="45.94842" lon="7.8348">
        <ele>3504</ele>
        <time>2014-04-07T13:30:48.110Z</time>
      </trkpt>
      <trkpt lat="45.9494" lon="7.83274">
        <ele>3462.905809639</ele>
        <time>2014-04-07T13:31:48.110Z</time>
      </trkpt>
      <trkpt lat="45.95021" lon="7.83121">
        <ele>3420.47499648</ele>
        <time>2014-04-07T13:32:48.120Z</time>
      </trkpt>
      <trkpt lat="45.95138" lon="7.82935">
        <ele>3364.79999744</ele>
        <time>2014-04-07T13:33:48.120Z</time>
      </trkpt>
      <trkpt lat="45.95237" lon="7.82668">
        <ele>3294.3</ele>
        <time>2014-04-07T13:34:48.170Z</time>
      </trkpt>
      <trkpt lat="45.952" lon="7.82621">
        <ele>3276.2</ele>
        <time>2014-04-07T13:36:48.170Z</time>
      </trkpt>
      <trkpt lat="45.95122" lon="7.82524">
        <ele>3225.6899904</ele>
        <time>2014-04-07T13:37:49.910Z</time>
      </trkpt>
      <trkpt lat="45.95143" lon="7.82418">
        <ele>3173</ele>
        <time>2014-04-07T13:38:48.170Z</time>
      </trkpt>
      <trkpt lat="45.95189" lon="7.82264">
        <ele>3142</ele>
        <time>2014-04-07T13:39:48.120Z</time>
      </trkpt>
      <trkpt lat="45.95227" lon="7.82157">
        <ele>3119.12</ele>
        <time>2014-04-07T13:40:49.170Z</time>
      </trkpt>
      <trkpt lat="45.95358" lon="7.8189">
        <ele>3042.92499584</ele>
        <time>2014-04-07T13:41:48.120Z</time>
      </trkpt>
      <trkpt lat="45.95518" lon="7.81728">
        <ele>3015</ele>
        <time>2014-04-07T13:42:48.170Z</time>
      </trkpt>
      <trkpt lat="45.95555" lon="7.81668">
        <ele>2997</ele>
        <time>2014-04-07T13:43:48.100Z</time>
      </trkpt>
      <trkpt lat="45.95605" lon="7.81586">
        <ele>2974.62199552</ele>
        <time>2014-04-07T13:44:50.910Z</time>
      </trkpt>
      <trkpt lat="45.95685" lon="7.81442">
        <ele>2941.6953905862</ele>
        <time>2014-04-07T13:45:51.910Z</time>
      </trkpt>
      <trkpt lat="45.95678" lon="7.81457">
        <ele>2942.94599936</ele>
        <time>2014-04-07T13:47:50.910Z</time>
      </trkpt>
    </trkseg>
  </trk>
</gpx>